sensor_id;sensor_type;location;lat;lon;timestamp;temperature;humidity
26049;DHT22;13822;51.568;5.086;2022-08-19T04:47:46;17.90;99.90
26049;DHT22;13822;51.568;5.086;2022-08-19T04:52:59;17.80;99.90
26049;DHT22;13822;51.568;5.086;2022-08-19T04:58:01;17.80;99.90
26049;DHT22;13822;51.568;5.086;2022-08-19T05:03:03;17.70;99.90
26049;DHT22;13822;51.568;5.086;2022-08-19T05:08:08;17.70;99.90
26049;DHT22;13822;51.568;5.086;2022-08-19T05:13:12;17.60;99.90
26049;DHT22;13822;51.568;5.086;2022-08-19T05:18:14;17.50;99.90
26049;DHT22;13822;51.568;5.086;2022-08-19T05:23:34;17.50;99.90
26049;DHT22;13822;51.568;5.086;2022-08-19T05:28:37;17.40;99.90
26049;DHT22;13822;51.568;5.086;2022-08-19T05:33:39;17.40;99.90
26049;DHT22;13822;51.568;5.086;2022-08-19T05:38:41;17.40;99.90
26049;DHT22;13822;51.568;5.086;2022-08-19T05:43:43;17.40;99.90
26049;DHT22;13822;51.568;5.086;2022-08-19T05:48:45;17.40;99.90
26049;DHT22;13822;51.568;5.086;2022-08-19T05:53:47;17.40;99.90
26049;DHT22;13822;51.568;5.086;2022-08-19T05:58:49;17.50;99.90
26049;DHT22;13822;51.568;5.086;2022-08-19T06:03:52;17.50;99.90
26049;DHT22;13822;51.568;5.086;2022-08-19T06:08:54;17.60;99.90
26049;DHT22;13822;51.568;5.086;2022-08-19T06:13:56;17.60;99.90
26049;DHT22;13822;51.568;5.086;2022-08-19T06:19:03;17.70;99.90
26049;DHT22;13822;51.568;5.086;2022-08-19T06:24:11;17.70;99.90
26049;DHT22;13822;51.568;5.086;2022-08-19T06:29:15;17.80;99.90
26049;DHT22;13822;51.568;5.086;2022-08-19T06:34:25;17.90;99.90
26049;DHT22;13822;51.568;5.086;2022-08-19T06:39:32;18.00;99.90
26049;DHT22;13822;51.568;5.086;2022-08-19T06:44:36;18.10;99.90
26049;DHT22;13822;51.568;5.086;2022-08-19T06:49:44;18.20;99.90
26049;DHT22;13822;51.568;5.086;2022-08-19T06:54:46;18.30;99.90
26049;DHT22;13822;51.568;5.086;2022-08-19T06:59:57;18.40;99.90
26049;DHT22;13822;51.568;5.086;2022-08-19T07:04:59;18.50;99.90
26049;DHT22;13822;51.568;5.086;2022-08-19T07:10:07;18.50;99.90
26049;DHT22;13822;51.568;5.086;2022-08-19T07:15:10;18.60;99.90
26049;DHT22;13822;51.568;5.086;2022-08-19T07:20:12;18.60;99.90
26049;DHT22;13822;51.568;5.086;2022-08-19T07:25:19;18.70;99.90
26049;DHT22;13822;51.568;5.086;2022-08-19T07:30:35;18.80;99.90
26049;DHT22;13822;51.568;5.086;2022-08-19T07:35:38;18.80;99.90
26049;DHT22;13822;51.568;5.086;2022-08-19T07:40:40;19.00;99.90
26049;DHT22;13822;51.568;5.086;2022-08-19T07:45:43;19.00;99.90
26049;DHT22;13822;51.568;5.086;2022-08-19T07:50:45;19.10;99.90
26049;DHT22;13822;51.568;5.086;2022-08-19T07:55:47;19.10;99.90
26049;DHT22;13822;51.568;5.086;2022-08-19T08:00:50;19.20;99.90
26049;DHT22;13822;51.568;5.086;2022-08-19T08:05:52;19.20;99.90
26049;DHT22;13822;51.568;5.086;2022-08-19T08:11:14;19.20;99.90
26049;DHT22;13822;51.568;5.086;2022-08-19T08:16:21;19.30;99.90
26049;DHT22;13822;51.568;5.086;2022-08-19T08:21:23;19.30;99.90
26049;DHT22;13822;51.568;5.086;2022-08-19T08:26:25;19.40;99.90
26049;DHT22;13822;51.568;5.086;2022-08-19T08:31:29;19.40;99.90
26049;DHT22;13822;51.568;5.086;2022-08-19T08:36:31;19.50;99.90
26049;DHT22;13822;51.568;5.086;2022-08-19T08:47:19;19.50;99.90
26049;DHT22;13822;51.568;5.086;2022-08-19T08:52:29;19.50;99.90
26049;DHT22;13822;51.568;5.086;2022-08-19T09:03:08;19.70;99.90
26049;DHT22;13822;51.568;5.086;2022-08-19T09:08:39;19.70;99.90
26049;DHT22;13822;51.568;5.086;2022-08-19T09:20:06;19.80;99.90
26049;DHT22;13822;51.568;5.086;2022-08-19T09:25:13;19.90;99.90
26049;DHT22;13822;51.568;5.086;2022-08-19T09:30:30;20.00;99.90
26049;DHT22;13822;51.568;5.086;2022-08-19T09:35:34;20.00;99.90
26049;DHT22;13822;51.568;5.086;2022-08-19T09:40:53;20.00;99.90
26049;DHT22;13822;51.568;5.086;2022-08-19T09:45:55;20.10;99.90
26049;DHT22;13822;51.568;5.086;2022-08-19T09:51:11;20.20;99.90
26049;DHT22;13822;51.568;5.086;2022-08-19T09:56:18;20.30;99.90
26049;DHT22;13822;51.568;5.086;2022-08-19T10:01:23;20.40;99.90
26049;DHT22;13822;51.568;5.086;2022-08-19T10:06:29;20.50;99.90
26049;DHT22;13822;51.568;5.086;2022-08-19T10:11:47;20.50;99.90
26049;DHT22;13822;51.568;5.086;2022-08-19T10:16:55;20.60;99.90
26049;DHT22;13822;51.568;5.086;2022-08-19T10:22:03;20.80;99.90
26049;DHT22;13822;51.568;5.086;2022-08-19T10:27:10;20.90;99.90
26049;DHT22;13822;51.568;5.086;2022-08-19T10:32:17;21.00;99.90
26049;DHT22;13822;51.568;5.086;2022-08-19T10:37:36;21.10;99.90
26049;DHT22;13822;51.568;5.086;2022-08-19T10:42:58;21.20;99.90
26049;DHT22;13822;51.568;5.086;2022-08-19T10:48:00;21.40;99.90
26049;DHT22;13822;51.568;5.086;2022-08-19T10:53:07;21.60;99.90
26049;DHT22;13822;51.568;5.086;2022-08-19T10:58:15;21.80;99.90
26049;DHT22;13822;51.568;5.086;2022-08-19T11:03:20;21.90;99.90
26049;DHT22;13822;51.568;5.086;2022-08-19T11:08:22;22.20;99.90
26049;DHT22;13822;51.568;5.086;2022-08-19T11:13:27;22.50;99.90
26049;DHT22;13822;51.568;5.086;2022-08-19T11:18:30;23.00;99.90
26049;DHT22;13822;51.568;5.086;2022-08-19T11:23:32;23.30;99.90
26049;DHT22;13822;51.568;5.086;2022-08-19T11:28:36;23.30;99.90
26049;DHT22;13822;51.568;5.086;2022-08-19T11:33:42;23.20;99.90
26049;DHT22;13822;51.568;5.086;2022-08-19T11:38:50;23.20;99.90
26049;DHT22;13822;51.568;5.086;2022-08-19T11:43:54;23.30;99.90
26049;DHT22;13822;51.568;5.086;2022-08-19T11:48:58;23.50;99.90
26049;DHT22;13822;51.568;5.086;2022-08-19T11:54:05;23.60;99.90
26049;DHT22;13822;51.568;5.086;2022-08-19T11:59:09;23.60;99.90
26049;DHT22;13822;51.568;5.086;2022-08-19T12:04:17;23.70;99.90
26049;DHT22;13822;51.568;5.086;2022-08-19T12:09:22;23.70;99.90
26049;DHT22;13822;51.568;5.086;2022-08-19T12:14:24;23.70;99.90
26049;DHT22;13822;51.568;5.086;2022-08-19T12:19:27;23.60;99.90
26049;DHT22;13822;51.568;5.086;2022-08-19T12:24:31;23.50;99.90
26049;DHT22;13822;51.568;5.086;2022-08-19T12:29:37;23.30;99.90
26049;DHT22;13822;51.568;5.086;2022-08-19T12:34:39;23.30;99.90
26049;DHT22;13822;51.568;5.086;2022-08-19T12:39:42;23.20;99.90
26049;DHT22;13822;51.568;5.086;2022-08-19T12:44:46;23.20;99.90
26049;DHT22;13822;51.568;5.086;2022-08-19T12:49:49;23.20;99.90
26049;DHT22;13822;51.568;5.086;2022-08-19T12:54:56;23.10;99.90
26049;DHT22;13822;51.568;5.086;2022-08-19T13:00:11;23.10;99.90
26049;DHT22;13822;51.568;5.086;2022-08-19T13:05:18;23.20;99.90
26049;DHT22;13822;51.568;5.086;2022-08-19T13:10:30;23.20;99.90
26049;DHT22;13822;51.568;5.086;2022-08-19T13:15:38;23.20;99.90
26049;DHT22;13822;51.568;5.086;2022-08-19T13:20:42;23.30;99.90
26049;DHT22;13822;51.568;5.086;2022-08-19T13:26:02;23.40;99.90
26049;DHT22;13822;51.568;5.086;2022-08-19T13:31:07;23.50;99.90
26049;DHT22;13822;51.568;5.086;2022-08-19T13:36:28;23.70;99.90
26049;DHT22;13822;51.568;5.086;2022-08-19T13:41:30;23.90;99.90
26049;DHT22;13822;51.568;5.086;2022-08-19T13:46:32;24.40;99.90
26049;DHT22;13822;51.568;5.086;2022-08-19T13:51:34;24.80;99.90
26049;DHT22;13822;51.568;5.086;2022-08-19T13:56:44;25.10;99.90
26049;DHT22;13822;51.568;5.086;2022-08-19T14:01:47;25.20;99.90
26049;DHT22;13822;51.568;5.086;2022-08-19T14:06:49;25.20;99.90
26049;DHT22;13822;51.568;5.086;2022-08-19T14:11:51;25.20;99.90
26049;DHT22;13822;51.568;5.086;2022-08-19T14:16:54;25.20;99.90
26049;DHT22;13822;51.568;5.086;2022-08-19T14:21:56;25.20;99.90
26049;DHT22;13822;51.568;5.086;2022-08-19T14:26:59;25.20;99.90
26049;DHT22;13822;51.568;5.086;2022-08-19T14:32:01;25.50;99.90
26049;DHT22;13822;51.568;5.086;2022-08-19T14:37:03;25.60;99.90
26049;DHT22;13822;51.568;5.086;2022-08-19T14:42:09;25.60;99.90
26049;DHT22;13822;51.568;5.086;2022-08-19T14:47:12;25.50;99.90
26049;DHT22;13822;51.568;5.086;2022-08-19T14:52:15;25.50;99.90
26049;DHT22;13822;51.568;5.086;2022-08-19T14:57:17;25.40;99.90
26049;DHT22;13822;51.568;5.086;2022-08-19T15:02:19;25.20;99.90
26049;DHT22;13822;51.568;5.086;2022-08-19T15:07:37;24.80;99.90
26049;DHT22;13822;51.568;5.086;2022-08-19T15:12:40;24.30;99.90
26049;DHT22;13822;51.568;5.086;2022-08-19T15:17:44;23.80;99.90
26049;DHT22;13822;51.568;5.086;2022-08-19T15:22:48;23.70;99.90
26049;DHT22;13822;51.568;5.086;2022-08-19T15:27:50;23.60;99.90
26049;DHT22;13822;51.568;5.086;2022-08-19T15:32:53;23.40;99.90
26049;DHT22;13822;51.568;5.086;2022-08-19T15:37:57;23.10;99.90
26049;DHT22;13822;51.568;5.086;2022-08-19T15:42:59;23.00;99.90
26049;DHT22;13822;51.568;5.086;2022-08-19T15:48:03;22.80;99.90
26049;DHT22;13822;51.568;5.086;2022-08-19T15:53:08;22.70;99.90
26049;DHT22;13822;51.568;5.086;2022-08-19T15:58:12;22.60;99.90
26049;DHT22;13822;51.568;5.086;2022-08-19T16:03:33;22.50;99.90
26049;DHT22;13822;51.568;5.086;2022-08-19T16:08:56;22.40;99.90
26049;DHT22;13822;51.568;5.086;2022-08-19T16:14:00;22.40;99.90
26049;DHT22;13822;51.568;5.086;2022-08-19T16:19:06;22.40;99.90
26049;DHT22;13822;51.568;5.086;2022-08-19T16:24:14;22.30;99.90
26049;DHT22;13822;51.568;5.086;2022-08-19T16:29:18;22.10;99.90
26049;DHT22;13822;51.568;5.086;2022-08-19T16:34:41;21.80;99.90
26049;DHT22;13822;51.568;5.086;2022-08-19T16:39:43;21.60;99.90
26049;DHT22;13822;51.568;5.086;2022-08-19T16:44:45;21.40;99.90
26049;DHT22;13822;51.568;5.086;2022-08-19T16:49:48;21.40;99.90
26049;DHT22;13822;51.568;5.086;2022-08-19T16:54:55;21.20;99.90
26049;DHT22;13822;51.568;5.086;2022-08-19T16:59:57;21.30;99.90
26049;DHT22;13822;51.568;5.086;2022-08-19T17:04:59;21.30;99.90
26049;DHT22;13822;51.568;5.086;2022-08-19T17:10:04;21.30;99.90
26049;DHT22;13822;51.568;5.086;2022-08-19T17:15:07;21.40;99.90
26049;DHT22;13822;51.568;5.086;2022-08-19T17:20:20;21.40;99.90
26049;DHT22;13822;51.568;5.086;2022-08-19T17:25:23;21.30;99.90
26049;DHT22;13822;51.568;5.086;2022-08-19T17:30:29;21.30;99.90
26049;DHT22;13822;51.568;5.086;2022-08-19T17:35:34;21.30;99.90
26049;DHT22;13822;51.568;5.086;2022-08-19T17:40:38;21.20;99.90
26049;DHT22;13822;51.568;5.086;2022-08-19T17:45:43;21.30;99.90
26049;DHT22;13822;51.568;5.086;2022-08-19T17:50:46;21.20;99.90
26049;DHT22;13822;51.568;5.086;2022-08-19T17:55:48;21.30;99.90
26049;DHT22;13822;51.568;5.086;2022-08-19T18:00:52;21.30;99.90
26049;DHT22;13822;51.568;5.086;2022-08-19T18:05:56;21.30;99.90
26049;DHT22;13822;51.568;5.086;2022-08-19T18:10:59;21.20;99.90
26049;DHT22;13822;51.568;5.086;2022-08-19T18:16:02;21.20;99.90
26049;DHT22;13822;51.568;5.086;2022-08-19T18:21:06;21.20;99.90
26049;DHT22;13822;51.568;5.086;2022-08-19T18:26:09;21.20;99.90
26049;DHT22;13822;51.568;5.086;2022-08-19T18:31:12;21.10;99.90
26049;DHT22;13822;51.568;5.086;2022-08-19T18:36:14;21.10;99.90
26049;DHT22;13822;51.568;5.086;2022-08-19T18:41:37;21.00;99.90
26049;DHT22;13822;51.568;5.086;2022-08-19T18:46:58;21.00;99.90
26049;DHT22;13822;51.568;5.086;2022-08-19T18:52:19;21.00;99.90
26049;DHT22;13822;51.568;5.086;2022-08-19T18:57:26;21.00;99.90
26049;DHT22;13822;51.568;5.086;2022-08-19T19:02:27;20.90;99.90
26049;DHT22;13822;51.568;5.086;2022-08-19T19:07:30;20.90;99.90
26049;DHT22;13822;51.568;5.086;2022-08-19T19:12:39;20.80;99.90
26049;DHT22;13822;51.568;5.086;2022-08-19T19:17:43;20.80;99.90
26049;DHT22;13822;51.568;5.086;2022-08-19T19:22:47;20.80;99.90
